Northway Airport
PAOR : now visible

Airfield :











YOU CAN JOIN US ON...

 
LOGIN :

Register | Disclaimer

   EN    FR    IT 

 









Legend :    VFR   Marginal VFR   IFR   Intensive IFR   Very Intensive IFR
Visi :
Ceiling :
>= 8 km
>= 3000ft
5 to 8 km
1000 to 3000 ft
1500m to 5 km
500 to 1000 ft
800 to 1500m
200 to 500 ft
< 800m
< 200 ft
Symbols :   Thunderstorms  Fog  Heavy snow  Heavy precipitations  Wind > 20 kt






- Airport Elevation : 1715 ft
- IATA code : ORT


PAOR - Northway

CURRENT METAR :
  • 051553Z 11008KT 9SM -SN OVC012 M21/M23 A2990 RMK AO2 SLP195 PCPN VRY LGT T12061233 PNO

EXPIRED METARs :
  • 051453Z 11008KT 9SM -SN OVC015 M20/M23 A2990 RMK AO2 SLP196 PCPN VRY LGT T12001228 56005 PNO
  • 051353Z 11006KT 9SM -SN OVC015 M19/M23 A2991 RMK AO2 SLP198 PCPN VRY LGT T11941228 PNO

TAF PAOR
Valid from the 05 at 12:00 until the 06 at 12:00 UTC


051123Z 0512/0612 VRB04KT P6SM VCSH BKN015 OVC025
FM060000 VRB04KT P6SM FEW015 SCT025 BKN100



MET'MAP, your aeronautical weather chart ! - Copyright ORBIFLY December 2007 - Disclaimer

ORBIFLY MET'MAP TEAM :

Programming & Development : Alexandra Zaïnal
Concept & original design : Baudouin d'Aumeries
Assistance for programming : Marc-Olivier Méhu
Technical & hardware support : Manuel Goepfert

Contact : metmap@orbifly.com




SOURCES & CREDITS :

   NOAA       Earth
Advisory